createdAt,value
2018-12-02T00:01:01.076Z,2.37
2018-12-02T00:03:29.279Z,1.33
2018-12-02T00:05:57.448Z,1.43
2018-12-02T00:08:25.650Z,1.13
2018-12-02T00:10:54.274Z,1.40
2018-12-02T00:13:22.518Z,0.77
2018-12-02T00:15:50.976Z,1.00
2018-12-02T00:18:19.133Z,0.80
2018-12-02T00:20:47.321Z,0.93
2018-12-02T00:23:15.478Z,0.90
2018-12-02T00:25:43.707Z,0.80
2018-12-02T00:28:12.128Z,0.93
2018-12-02T00:30:40.707Z,0.90
2018-12-02T00:33:09.666Z,0.97
2018-12-02T00:35:38.068Z,1.13
2018-12-02T00:38:07.607Z,1.23
2018-12-02T00:40:36.297Z,0.97
2018-12-02T00:43:06.102Z,1.60
2018-12-02T00:45:35.182Z,0.80
2018-12-02T00:48:05.750Z,1.13
2018-12-02T00:50:33.947Z,0.90
2018-12-02T00:53:02.335Z,0.80
2018-12-02T00:55:31.895Z,0.77
2018-12-02T00:58:00.080Z,0.70
2018-12-02T01:00:28.358Z,0.77
2018-12-02T01:02:56.560Z,1.17
2018-12-02T01:05:24.714Z,0.90
2018-12-02T01:07:52.938Z,0.70
2018-12-02T01:10:24.841Z,0.70
2018-12-02T01:12:55.835Z,0.90
2018-12-02T01:15:27.004Z,0.60
2018-12-02T01:17:55.201Z,0.60
2018-12-02T01:20:24.055Z,0.80
2018-12-02T01:22:52.227Z,0.63
2018-12-02T01:25:20.418Z,0.53
2018-12-02T01:27:48.570Z,0.50
2018-12-02T01:30:19.461Z,0.70
2018-12-02T01:32:47.670Z,0.83
2018-12-02T01:35:18.723Z,0.70
2018-12-02T01:37:47.180Z,0.60
2018-12-02T01:40:16.092Z,0.60
2018-12-02T01:42:44.262Z,0.70
2018-12-02T01:45:17.404Z,0.83
2018-12-02T01:47:45.713Z,0.50
2018-12-02T01:50:15.802Z,0.60
2018-12-02T01:52:44.939Z,1.13
2018-12-02T01:55:13.134Z,0.50
2018-12-02T01:57:41.337Z,0.60
2018-12-02T02:00:13.162Z,0.53
2018-12-02T02:02:41.348Z,0.50
2018-12-02T02:05:09.513Z,0.60
2018-12-02T02:07:37.864Z,0.60
2018-12-02T02:10:12.327Z,0.60
2018-12-02T02:12:40.558Z,0.90
2018-12-02T02:15:10.028Z,0.70
2018-12-02T02:17:38.208Z,0.57
2018-12-02T02:20:09.507Z,0.93
2018-12-02T02:22:37.764Z,0.60
2018-12-02T02:25:07.638Z,0.80
2018-12-02T02:27:35.819Z,0.50
2018-12-02T02:30:12.569Z,0.53
2018-12-02T02:32:40.781Z,0.87
2018-12-02T02:35:09.612Z,0.70
2018-12-02T02:37:37.871Z,0.70
2018-12-02T02:40:24.622Z,0.60
2018-12-02T02:42:52.829Z,0.50
2018-12-02T02:45:20.946Z,0.60
2018-12-02T02:47:49.121Z,0.50
2018-12-02T02:50:21.039Z,0.57
2018-12-02T02:52:51.263Z,0.50
2018-12-02T02:55:19.553Z,0.53
2018-12-02T02:57:47.749Z,0.90
2018-12-02T03:00:16.885Z,0.60
2018-12-02T03:02:45.050Z,0.50
2018-12-02T03:05:13.827Z,0.80
2018-12-02T03:07:42.019Z,0.50
2018-12-02T03:10:12.016Z,0.60
2018-12-02T03:12:40.159Z,0.60
2018-12-02T03:15:09.649Z,0.53
2018-12-02T03:17:37.812Z,0.60
2018-12-02T03:20:08.180Z,0.50
2018-12-02T03:22:36.379Z,0.90
2018-12-02T03:25:05.845Z,0.67
2018-12-02T03:27:33.998Z,0.60
2018-12-02T03:30:02.630Z,0.80
2018-12-02T03:32:30.776Z,0.87
2018-12-02T03:34:58.959Z,0.67
2018-12-02T03:37:27.136Z,0.70
2018-12-02T03:39:55.297Z,0.80
2018-12-02T03:42:23.448Z,0.70
2018-12-02T03:44:51.624Z,0.77
2018-12-02T03:47:19.790Z,1.43
2018-12-02T03:49:48.031Z,0.80
2018-12-02T03:52:16.247Z,0.70
2018-12-02T03:54:44.432Z,0.73
2018-12-02T03:57:12.632Z,0.90
2018-12-02T03:59:40.843Z,0.60
2018-12-02T04:02:08.996Z,0.70
2018-12-02T04:04:37.146Z,0.80
2018-12-02T04:07:05.667Z,0.60
2018-12-02T04:09:33.836Z,0.70
2018-12-02T04:12:01.996Z,0.90
2018-12-02T04:14:30.226Z,0.80
2018-12-02T04:16:58.399Z,0.60
2018-12-02T04:19:26.562Z,0.93
2018-12-02T04:21:54.798Z,0.60
2018-12-02T04:24:22.951Z,0.50
2018-12-02T04:26:51.262Z,0.60
2018-12-02T04:29:19.428Z,0.80
2018-12-02T04:31:47.621Z,1.00
2018-12-02T04:34:15.850Z,0.70
2018-12-02T04:36:44.026Z,0.70
2018-12-02T04:39:12.217Z,0.63
2018-12-02T04:41:40.398Z,0.60
2018-12-02T04:44:08.570Z,0.80
2018-12-02T04:46:36.742Z,0.70
2018-12-02T04:49:05.126Z,0.90
2018-12-02T04:51:33.299Z,0.60
2018-12-02T04:54:01.587Z,0.80
2018-12-02T04:56:30.112Z,0.70
2018-12-02T04:58:58.308Z,0.70
2018-12-02T05:01:26.487Z,0.90
2018-12-02T05:03:54.730Z,9.07
2018-12-02T05:06:22.911Z,0.93
2018-12-02T05:08:51.091Z,0.70
2018-12-02T05:11:19.308Z,1.10
2018-12-02T05:13:47.613Z,1.30
2018-12-02T05:16:15.773Z,0.80
2018-12-02T05:18:43.968Z,1.00
2018-12-02T05:21:12.140Z,0.70
2018-12-02T05:23:40.295Z,0.80
2018-12-02T05:26:08.499Z,0.83
2018-12-02T05:28:36.678Z,0.90
2018-12-02T05:31:05.262Z,0.80
2018-12-02T05:33:33.877Z,0.90
2018-12-02T05:36:02.223Z,0.80
2018-12-02T05:38:30.386Z,0.90
2018-12-02T05:40:58.555Z,0.90
2018-12-02T05:43:26.727Z,0.90
2018-12-02T05:45:54.882Z,0.90
2018-12-02T05:48:23.076Z,0.93
2018-12-02T05:50:51.328Z,0.90
2018-12-02T05:53:19.510Z,0.87
2018-12-02T05:55:47.672Z,0.63
2018-12-02T05:58:15.826Z,0.50
2018-12-02T06:00:44.011Z,0.70
2018-12-02T06:03:12.161Z,0.60
2018-12-02T06:05:40.339Z,0.80
2018-12-02T06:08:08.512Z,0.90
2018-12-02T06:10:36.670Z,0.70
2018-12-02T06:13:05.735Z,0.70
2018-12-02T06:15:33.870Z,0.60
2018-12-02T06:18:02.046Z,0.70
2018-12-02T06:20:30.234Z,0.70
2018-12-02T06:22:58.646Z,0.80
2018-12-02T06:25:26.777Z,0.70
2018-12-02T06:27:55.475Z,0.60
2018-12-02T06:30:24.399Z,0.60
2018-12-02T06:33:00.233Z,0.70
2018-12-02T06:35:28.456Z,0.60
2018-12-02T06:37:57.413Z,0.80
2018-12-02T06:40:26.626Z,0.83
2018-12-02T06:42:54.839Z,0.60
2018-12-02T06:45:23.002Z,0.60
2018-12-02T06:47:51.154Z,1.10
2018-12-02T06:50:22.066Z,0.67
2018-12-02T06:52:50.282Z,0.80
2018-12-02T06:55:22.901Z,0.83
2018-12-02T06:57:55.660Z,0.77
2018-12-02T07:00:33.143Z,0.60
2018-12-02T07:03:10.646Z,0.60
2018-12-02T07:05:38.931Z,0.63
2018-12-02T07:08:07.115Z,0.70
2018-12-02T07:10:35.267Z,0.60
2018-12-02T07:13:04.035Z,0.70
2018-12-02T07:15:32.252Z,0.90
2018-12-02T07:18:00.417Z,0.60
2018-12-02T07:20:28.595Z,0.80
2018-12-02T07:22:56.760Z,0.70
2018-12-02T07:25:24.918Z,0.60
2018-12-02T07:27:53.172Z,0.70
2018-12-02T07:30:25.019Z,0.60
2018-12-02T07:32:49.574Z,0.70
2018-12-02T07:35:17.755Z,0.60
2018-12-02T07:37:49.391Z,0.70
2018-12-02T07:40:24.970Z,0.50
2018-12-02T07:42:53.122Z,0.60
2018-12-02T07:45:21.780Z,0.70
2018-12-02T07:47:51.149Z,0.67
2018-12-02T07:50:19.326Z,0.67
2018-12-02T07:52:47.496Z,0.60
2018-12-02T07:55:15.667Z,0.80
2018-12-02T07:57:43.818Z,0.90
2018-12-02T08:00:12.971Z,0.70
2018-12-02T08:02:41.389Z,0.70
2018-12-02T08:05:11.566Z,0.60
2018-12-02T08:07:39.867Z,0.50
2018-12-02T08:10:10.670Z,0.60
2018-12-02T08:12:38.843Z,0.60
2018-12-02T08:15:16.087Z,0.70
2018-12-02T08:17:44.881Z,0.73
2018-12-02T08:20:13.356Z,0.77
2018-12-02T08:22:42.680Z,0.73
2018-12-02T08:25:12.050Z,0.50
2018-12-02T08:27:40.497Z,0.60
2018-12-02T08:30:14.330Z,0.60
2018-12-02T08:32:42.585Z,0.70
2018-12-02T08:35:11.631Z,0.60
2018-12-02T08:37:40.787Z,0.60
2018-12-02T08:40:10.255Z,1.00
2018-12-02T08:42:38.465Z,0.80
2018-12-02T08:45:10.747Z,0.77
2018-12-02T08:47:39.391Z,1.07
2018-12-02T08:50:12.315Z,1.73
2018-12-02T08:52:40.516Z,1.10
2018-12-02T08:55:10.317Z,1.27
2018-12-02T08:57:38.524Z,2.10
2018-12-02T09:00:12.763Z,0.77
2018-12-02T09:02:41.398Z,0.70
2018-12-02T09:05:10.870Z,0.70
2018-12-02T09:07:39.102Z,0.70
2018-12-02T09:10:17.565Z,0.53
2018-12-02T09:12:46.952Z,0.60
2018-12-02T09:15:15.516Z,0.50
2018-12-02T09:17:44.206Z,0.60
2018-12-02T09:20:19.110Z,0.60
2018-12-02T09:22:47.304Z,0.70
2018-12-02T09:25:15.570Z,0.57
2018-12-02T09:27:44.473Z,0.60
2018-12-02T09:30:15.027Z,0.60
2018-12-02T09:32:43.710Z,1.00
2018-12-02T09:35:12.433Z,0.67
2018-12-02T09:37:41.284Z,0.60
2018-12-02T09:40:15.254Z,0.70
2018-12-02T09:42:46.962Z,0.60
2018-12-02T09:45:17.557Z,0.90
2018-12-02T09:47:45.792Z,0.80
2018-12-02T09:50:14.530Z,1.00
2018-12-02T09:52:42.686Z,0.83
2018-12-02T09:55:25.774Z,0.87
2018-12-02T09:57:54.903Z,0.80
2018-12-02T10:00:23.057Z,0.83
2018-12-02T10:02:51.294Z,1.10
2018-12-02T10:05:20.354Z,1.40
2018-12-02T10:07:48.563Z,8.10
2018-12-02T10:10:22.365Z,2.20
2018-12-02T10:12:51.466Z,1.40
2018-12-02T10:15:20.864Z,1.10
2018-12-02T10:17:49.411Z,0.80
2018-12-02T10:20:17.588Z,0.70
2018-12-02T10:22:46.609Z,0.70
2018-12-02T10:25:15.838Z,0.83
2018-12-02T10:27:44.744Z,1.20
2018-12-02T10:30:15.119Z,0.70
2018-12-02T10:32:44.136Z,1.20
2018-12-02T10:35:12.314Z,0.80
2018-12-02T10:37:41.083Z,0.83
2018-12-02T10:40:16.634Z,4.23
2018-12-02T10:42:44.896Z,0.80
2018-12-02T10:45:21.306Z,0.70
2018-12-02T10:47:50.570Z,0.93
2018-12-02T10:50:21.235Z,1.13
2018-12-02T10:52:50.627Z,0.80
2018-12-02T10:55:26.391Z,0.83
2018-12-02T10:57:54.630Z,8.43
2018-12-02T11:00:28.289Z,1.00
2018-12-02T11:02:56.615Z,0.60
2018-12-02T11:05:25.066Z,0.70
2018-12-02T11:07:53.206Z,0.70
2018-12-02T11:10:21.639Z,0.83
2018-12-02T11:12:49.896Z,0.87
2018-12-02T11:15:19.382Z,0.80
2018-12-02T11:17:47.900Z,0.90
2018-12-02T11:20:21.694Z,1.37
2018-12-02T11:22:50.782Z,2.07
2018-12-02T11:25:18.980Z,0.73
2018-12-02T11:27:49.838Z,0.90
2018-12-02T11:30:19.605Z,0.97
2018-12-02T11:32:50.427Z,0.90
2018-12-02T11:35:19.336Z,0.70
2018-12-02T11:37:48.845Z,0.70
2018-12-02T11:40:21.519Z,1.17
2018-12-02T11:42:52.163Z,0.77
2018-12-02T11:45:20.526Z,0.60
2018-12-02T11:47:51.856Z,0.80
2018-12-02T11:50:23.892Z,0.83
2018-12-02T11:52:52.814Z,0.60
2018-12-02T11:55:21.781Z,1.07
2018-12-02T11:57:50.064Z,0.90
2018-12-02T12:00:28.203Z,0.80
2018-12-02T12:02:57.256Z,0.90
2018-12-02T12:05:25.826Z,1.00
2018-12-02T12:07:54.730Z,1.20
2018-12-02T12:10:26.779Z,0.73
2018-12-02T12:12:57.272Z,0.93
2018-12-02T12:15:26.287Z,0.80
2018-12-02T12:17:55.094Z,0.77
2018-12-02T12:20:26.258Z,1.00
2018-12-02T12:22:54.517Z,1.00
2018-12-02T12:25:22.675Z,0.90
2018-12-02T12:27:51.832Z,0.90
2018-12-02T12:30:21.309Z,0.70
2018-12-02T12:32:49.525Z,1.00
2018-12-02T12:35:19.283Z,1.10
2018-12-02T12:37:48.156Z,1.00
2018-12-02T12:40:18.419Z,1.07
2018-12-02T12:42:48.865Z,1.27
2018-12-02T12:45:17.124Z,1.33
2018-12-02T12:47:45.458Z,1.40
2018-12-02T12:50:14.546Z,1.20
2018-12-02T12:52:42.776Z,1.50
2018-12-02T12:55:12.437Z,1.43
2018-12-02T12:57:40.638Z,1.50
2018-12-02T13:00:14.778Z,1.50
2018-12-02T13:02:42.923Z,1.33
2018-12-02T13:05:13.564Z,1.37
2018-12-02T13:07:41.998Z,1.50
2018-12-02T13:10:15.098Z,1.60
2018-12-02T13:12:43.347Z,1.40
2018-12-02T13:15:14.218Z,1.50
2018-12-02T13:17:43.776Z,1.43
2018-12-02T13:20:13.251Z,1.60
2018-12-02T13:22:41.453Z,1.80
2018-12-02T13:25:11.528Z,1.47
2018-12-02T13:27:40.195Z,1.10
2018-12-02T13:30:13.582Z,1.30
2018-12-02T13:32:41.799Z,1.10
2018-12-02T13:35:10.361Z,0.90
2018-12-02T13:37:38.559Z,0.97
2018-12-02T13:40:10.936Z,1.40
2018-12-02T13:42:39.805Z,1.40
2018-12-02T13:45:12.188Z,0.93
2018-12-02T13:47:40.374Z,0.97
2018-12-02T13:50:13.318Z,1.00
2018-12-02T13:52:41.522Z,1.20
2018-12-02T13:55:17.502Z,1.20
2018-12-02T13:57:46.286Z,1.20
2018-12-02T14:00:19.174Z,1.53
2018-12-02T14:02:48.511Z,1.33
2018-12-02T14:05:16.708Z,1.47
2018-12-02T14:07:44.911Z,1.50
2018-12-02T14:10:13.962Z,1.80
2018-12-02T14:12:43.717Z,1.13
2018-12-02T14:15:30.863Z,1.50
2018-12-02T14:18:06.772Z,1.50
2018-12-02T14:20:35.063Z,1.57
2018-12-02T14:23:03.231Z,1.23
2018-12-02T14:25:31.425Z,1.30
2018-12-02T14:27:59.921Z,1.27
2018-12-02T14:30:28.718Z,1.50
2018-12-02T14:32:56.878Z,1.77
2018-12-02T14:35:25.110Z,1.63
2018-12-02T14:37:53.288Z,2.10
2018-12-02T14:40:21.531Z,2.27
2018-12-02T14:42:49.668Z,2.67
2018-12-02T14:45:18.029Z,1.73
2018-12-02T14:47:46.501Z,2.60
2018-12-02T14:50:15.805Z,2.57
2018-12-02T14:52:46.105Z,3.70
2018-12-02T14:55:16.598Z,3.00
2018-12-02T14:57:46.501Z,2.03
2018-12-02T15:00:17.471Z,2.60
2018-12-02T15:02:45.689Z,2.53
2018-12-02T15:05:14.214Z,2.20
2018-12-02T15:07:44.319Z,2.00
2018-12-02T15:10:15.200Z,1.63
2018-12-02T15:12:44.230Z,1.80
2018-12-02T15:15:13.743Z,2.53
2018-12-02T15:17:42.398Z,1.77
2018-12-02T15:20:20.228Z,2.13
2018-12-02T15:22:53.088Z,2.20
2018-12-02T15:25:21.553Z,3.20
2018-12-02T15:27:49.735Z,2.00
2018-12-02T15:30:18.789Z,1.77
2018-12-02T15:32:50.181Z,2.17
2018-12-02T15:35:18.804Z,2.60
2018-12-02T15:37:47.047Z,2.87
2018-12-02T15:40:16.448Z,2.50
2018-12-02T15:42:50.038Z,2.77
2018-12-02T15:45:19.439Z,2.43
2018-12-02T15:47:47.623Z,2.53
2018-12-02T15:50:21.285Z,1.83
2018-12-02T15:52:49.599Z,2.10
2018-12-02T15:55:24.169Z,2.03
2018-12-02T15:57:52.518Z,2.00
2018-12-02T16:00:22.939Z,1.63
2018-12-02T16:02:51.415Z,1.20
2018-12-02T16:05:19.582Z,2.23
2018-12-02T16:07:47.826Z,2.10
2018-12-02T16:10:16.027Z,1.80
2018-12-02T16:12:45.434Z,1.43
2018-12-02T16:15:14.856Z,1.73
2018-12-02T16:17:43.247Z,1.70
2018-12-02T16:21:15.267Z,1.67
2018-12-02T16:23:43.469Z,1.37
2018-12-02T16:26:11.636Z,1.97
2018-12-02T16:28:39.831Z,1.57
2018-12-02T16:31:08.006Z,1.90
2018-12-02T16:33:36.261Z,1.70
2018-12-02T16:36:04.737Z,2.10
2018-12-02T16:38:33.678Z,2.40
2018-12-02T16:41:01.977Z,2.07
2018-12-02T16:43:30.111Z,3.00
2018-12-02T16:45:58.345Z,4.03
2018-12-02T16:48:26.525Z,4.40
2018-12-02T16:50:54.688Z,3.10
2018-12-02T16:53:24.471Z,2.67
2018-12-02T16:56:13.899Z,2.10
2018-12-02T16:58:48.943Z,2.10
2018-12-02T17:01:18.503Z,3.00
2018-12-02T17:03:47.023Z,3.50
2018-12-02T17:06:15.220Z,3.67
2018-12-02T17:08:43.380Z,2.87
2018-12-02T17:11:11.540Z,3.67
2018-12-02T17:13:40.337Z,2.83
2018-12-02T17:16:08.537Z,3.03
2018-12-02T17:18:36.737Z,3.00
2018-12-02T17:21:05.298Z,3.40
2018-12-02T17:23:33.443Z,3.67
2018-12-02T17:26:01.811Z,4.10
2018-12-02T17:28:30.076Z,3.37
2018-12-02T17:31:00.402Z,4.13
2018-12-02T17:33:28.592Z,4.63
2018-12-02T17:35:56.766Z,4.70
2018-12-02T17:38:25.905Z,3.73
2018-12-02T17:40:55.654Z,5.03
2018-12-02T17:43:23.811Z,4.27
2018-12-02T17:45:52.003Z,4.83
2018-12-02T17:48:20.164Z,6.83
2018-12-02T17:50:48.355Z,4.70
2018-12-02T17:53:16.569Z,5.80
2018-12-02T17:55:44.687Z,5.33
2018-12-02T17:58:12.911Z,5.63
2018-12-02T18:00:41.095Z,5.07
2018-12-02T18:03:11.088Z,5.40
2018-12-02T18:05:42.420Z,6.10
2018-12-02T18:08:10.578Z,8.20
2018-12-02T18:10:39.440Z,5.67
2018-12-02T18:13:07.626Z,5.00
2018-12-02T18:15:35.805Z,5.70
2018-12-02T18:18:04.057Z,6.57
2018-12-02T18:20:32.217Z,5.30
2018-12-02T18:23:00.427Z,7.23
2018-12-02T18:25:28.662Z,6.57
2018-12-02T18:27:56.818Z,6.90
2018-12-02T18:30:25.778Z,6.30
2018-12-02T18:32:56.944Z,6.80
2018-12-02T18:35:58.834Z,5.70
2018-12-02T18:38:28.663Z,4.20
2018-12-02T18:41:09.350Z,4.50
2018-12-02T18:43:37.618Z,4.77
2018-12-02T18:46:06.685Z,3.00
2018-12-02T18:48:34.869Z,2.70
2018-12-02T18:51:03.351Z,2.70
2018-12-02T18:53:31.536Z,2.27
2018-12-02T18:55:59.695Z,3.00
2018-12-02T18:58:27.883Z,2.47
2018-12-02T19:00:56.039Z,1.53
2018-12-02T19:03:24.877Z,2.23
2018-12-02T19:05:53.534Z,1.80
2018-12-02T19:08:21.704Z,1.77
2018-12-02T19:10:52.919Z,1.77
2018-12-02T19:13:21.076Z,1.80
2018-12-02T19:15:50.166Z,1.80
2018-12-02T19:18:18.647Z,1.53
2018-12-02T19:20:47.660Z,1.27
2018-12-02T19:23:18.869Z,1.03
2018-12-02T19:25:47.275Z,1.40
2018-12-02T19:28:15.439Z,1.30
2018-12-02T19:30:43.635Z,1.83
2018-12-02T19:33:14.023Z,1.20
2018-12-02T19:35:42.341Z,1.30
2018-12-02T19:38:19.800Z,1.30
2018-12-02T19:40:47.940Z,1.50
2018-12-02T19:43:16.125Z,1.17
2018-12-02T19:45:44.695Z,1.47
2018-12-02T19:48:12.856Z,1.07
2018-12-02T19:50:41.215Z,1.40
2018-12-02T19:53:09.390Z,1.33
2018-12-02T19:55:37.566Z,1.03
2018-12-02T19:58:07.764Z,1.10
2018-12-02T20:00:42.376Z,1.10
2018-12-02T20:03:11.345Z,1.00
2018-12-02T20:05:39.825Z,0.93
2018-12-02T20:08:09.959Z,1.30
2018-12-02T20:10:38.717Z,1.50
2018-12-02T20:13:09.315Z,1.30
2018-12-02T20:15:41.837Z,1.47
2018-12-02T20:18:09.989Z,1.30
2018-12-02T20:20:43.764Z,1.67
2018-12-02T20:23:11.972Z,3.20
2018-12-02T20:25:40.117Z,2.07
2018-12-02T20:28:09.700Z,1.63
2018-12-02T20:30:38.227Z,1.23
2018-12-02T20:33:06.589Z,1.70
2018-12-02T20:35:34.795Z,1.40
2018-12-02T20:38:02.964Z,2.23
2018-12-02T20:40:31.146Z,2.00
2018-12-02T20:42:59.316Z,1.83
2018-12-02T20:45:27.488Z,2.20
2018-12-02T20:47:55.664Z,2.50
2018-12-02T20:50:23.815Z,1.87
2018-12-02T20:52:52.191Z,2.20
2018-12-02T20:55:21.575Z,1.73
2018-12-02T20:57:50.807Z,3.00
2018-12-02T21:00:19.504Z,2.30
2018-12-02T21:03:21.023Z,2.80
2018-12-02T21:05:56.255Z,3.50
2018-12-02T21:08:24.475Z,3.10
2018-12-02T21:10:52.645Z,2.63
2018-12-02T21:13:20.826Z,3.07
2018-12-02T21:15:49.009Z,4.43
2018-12-02T21:18:17.168Z,3.10
2018-12-02T21:20:45.349Z,2.90
2018-12-02T21:23:13.522Z,2.30
2018-12-02T21:25:41.781Z,2.77
2018-12-02T21:28:11.053Z,2.30
2018-12-02T21:30:39.738Z,2.30
2018-12-02T21:33:08.452Z,2.27
2018-12-02T21:35:36.628Z,2.30
2018-12-02T21:38:04.936Z,1.73
2018-12-02T21:40:33.147Z,2.43
2018-12-02T21:43:01.526Z,1.73
2018-12-02T21:45:29.776Z,2.13
2018-12-02T21:47:58.420Z,2.17
2018-12-02T21:50:28.914Z,2.47
2018-12-02T21:52:58.283Z,2.70
2018-12-02T21:55:28.655Z,1.90
2018-12-02T21:57:57.655Z,3.12
2018-12-02T22:00:38.285Z,2.27
2018-12-02T22:03:06.586Z,1.93
2018-12-02T22:05:35.642Z,2.60
2018-12-02T22:08:17.963Z,2.30
2018-12-02T22:10:46.519Z,2.60
2018-12-02T22:13:14.720Z,2.17
2018-12-02T22:15:44.122Z,2.87
2018-12-02T22:18:12.294Z,2.97
2018-12-02T22:20:40.538Z,2.57
2018-12-02T22:23:09.166Z,2.90
2018-12-02T22:25:37.449Z,3.03
2018-12-02T22:28:07.810Z,2.87
2018-12-02T22:30:36.136Z,3.60
2018-12-02T22:33:04.311Z,3.50
2018-12-02T22:38:31.522Z,3.00
2018-12-02T22:40:59.728Z,3.20
2018-12-02T22:43:27.915Z,3.10
2018-12-02T22:45:56.114Z,3.13
2018-12-02T22:48:24.491Z,3.67
2018-12-02T22:50:52.699Z,3.50
2018-12-02T22:53:20.918Z,3.30
2018-12-02T22:55:49.228Z,3.27
2018-12-02T22:58:17.439Z,2.87
2018-12-02T23:00:51.332Z,3.10
2018-12-02T23:03:19.655Z,2.93
2018-12-02T23:05:47.996Z,2.37
2018-12-02T23:08:16.322Z,2.87
2018-12-02T23:10:44.542Z,3.33
2018-12-02T23:13:12.802Z,3.10
2018-12-02T23:15:41.787Z,3.10
2018-12-02T23:18:11.518Z,3.40
2018-12-02T23:20:39.721Z,2.90
2018-12-02T23:23:08.127Z,3.03
2018-12-02T23:25:37.320Z,2.57
2018-12-02T23:28:11.690Z,2.50
2018-12-02T23:30:39.902Z,2.30
2018-12-02T23:33:08.943Z,1.70
2018-12-02T23:35:37.147Z,1.60
2018-12-02T23:38:06.363Z,2.03
2018-12-02T23:40:34.606Z,1.20
2018-12-02T23:43:02.779Z,1.20
2018-12-02T23:45:30.972Z,1.37
2018-12-02T23:47:59.163Z,0.80
2018-12-02T23:50:27.347Z,0.80
2018-12-02T23:52:55.568Z,0.60
2018-12-02T23:55:23.847Z,0.60
2018-12-02T23:57:52.927Z,0.90
